Time;durP1;ratioP1;P1;durP2;ratioP2;P2;SDS_P1;SDS_P2;PMS_P1;PMS_P2;Temp;Humidity;BMP_temperature;BMP_pressure;BME280_temperature;BME280_humidity;BME280_pressure;Samples;Min_cycle;Max_cycle;Signal;HPM_P1;HPM_P2
2021/04/29 00:02:06;;;;;;;13.83;7.30;;;14.00;99.90;;;;;;5049584;28;20461;-75
2021/04/29 00:04:34;;;;;;;16.27;7.30;;;14.00;99.90;;;;;;5041288;28;20341;-75
2021/04/29 00:07:00;;;;;;;12.50;7.75;;;14.00;99.90;;;;;;5039217;28;20028;-74
2021/04/29 00:09:26;;;;;;;8.55;7.18;;;14.00;99.90;;;;;;5021165;28;20025;-75
2021/04/29 00:11:52;;;;;;;9.80;6.72;;;14.00;99.90;;;;;;5029373;28;20017;-75
2021/04/29 00:14:19;;;;;;;12.23;7.00;;;14.10;99.90;;;;;;5031776;28;20139;-75
2021/04/29 00:16:44;;;;;;;12.23;7.47;;;14.00;99.90;;;;;;5049812;28;20077;-75
2021/04/29 00:19:10;;;;;;;10.60;7.13;;;14.00;99.90;;;;;;5034741;28;20355;-77
2021/04/29 00:21:37;;;;;;;14.80;7.15;;;14.00;99.90;;;;;;5036625;28;20022;-75
2021/04/29 00:24:04;;;;;;;9.38;6.22;;;14.00;99.90;;;;;;5044330;28;20045;-75
2021/04/29 00:26:30;;;;;;;13.65;7.05;;;14.00;99.90;;;;;;5039752;28;20029;-75
2021/04/29 00:28:56;;;;;;;10.55;6.90;;;14.00;99.90;;;;;;5036639;28;20056;-76
2021/04/29 00:31:22;;;;;;;10.82;7.07;;;14.00;99.90;;;;;;5038529;28;20099;-75
2021/04/29 00:33:48;;;;;;;15.27;6.97;;;14.00;99.90;;;;;;5046881;28;20029;-75
2021/04/29 00:36:14;;;;;;;9.75;6.60;;;14.00;99.90;;;;;;5051615;28;20071;-76
2021/04/29 00:38:40;;;;;;;14.75;6.70;;;14.00;99.90;;;;;;5046567;28;20069;-75
2021/04/29 00:41:06;;;;;;;10.48;7.07;;;14.00;99.90;;;;;;5052628;28;20032;-75
2021/04/29 00:43:33;;;;;;;17.67;6.97;;;14.00;99.90;;;;;;5044516;28;20036;-75
2021/04/29 00:45:59;;;;;;;11.90;5.88;;;14.10;99.90;;;;;;5052990;28;20404;-75
2021/04/29 00:48:25;;;;;;;8.55;6.32;;;14.20;99.90;;;;;;5045034;28;20492;-75
2021/04/29 00:50:51;;;;;;;10.30;6.68;;;14.20;99.90;;;;;;5034374;28;20298;-75
2021/04/29 00:53:18;;;;;;;19.33;6.97;;;14.20;99.90;;;;;;5039366;28;20060;-75
2021/04/29 00:55:44;;;;;;;15.77;7.57;;;14.30;99.90;;;;;;5034859;28;20040;-75
2021/04/29 00:58:10;;;;;;;12.55;7.60;;;14.30;99.90;;;;;;5045677;28;20113;-75
2021/04/29 01:00:38;;;;;;;13.80;8.52;;;14.30;99.90;;;;;;5034700;28;20141;-75
2021/04/29 01:03:08;;;;;;;14.45;9.50;;;14.20;99.90;;;;;;5042919;28;20399;-75
2021/04/29 01:05:39;;;;;;;18.80;10.68;;;14.10;99.90;;;;;;5054191;28;20021;-75
2021/04/29 01:08:40;;;;;;;15.23;10.50;;;13.90;99.90;;;;;;5050912;28;20025;-75
2021/04/29 01:11:33;;;;;;;19.30;10.57;;;13.90;99.90;;;;;;5033732;28;20479;-75
2021/04/29 01:14:03;;;;;;;17.00;11.60;;;13.80;99.90;;;;;;5042601;28;20037;-75
2021/04/29 01:16:30;;;;;;;19.98;13.90;;;13.70;99.90;;;;;;5038871;28;20013;-75
2021/04/29 01:18:58;;;;;;;21.33;12.02;;;13.70;99.90;;;;;;5036801;28;20183;-75
2021/04/29 01:21:28;;;;;;;19.55;13.88;;;13.70;99.90;;;;;;5035678;28;20025;-75
2021/04/29 01:24:21;;;;;;;19.08;15.13;;;13.60;99.90;;;;;;5044223;28;20040;-75
2021/04/29 01:26:55;;;;;;;23.58;14.98;;;13.60;99.90;;;;;;5048518;28;20018;-76
2021/04/29 01:29:25;;;;;;;22.73;15.50;;;13.60;99.90;;;;;;5040621;28;20511;-75
2021/04/29 01:31:52;;;;;;;19.85;15.65;;;13.60;99.90;;;;;;5028243;28;20045;-75
2021/04/29 01:34:21;;;;;;;21.33;16.25;;;13.60;99.90;;;;;;5040977;28;20025;-75
2021/04/29 01:36:49;;;;;;;24.73;18.23;;;13.50;99.90;;;;;;5036151;28;20033;-74
2021/04/29 01:39:17;;;;;;;33.03;20.23;;;13.50;99.90;;;;;;5041622;28;20034;-76
2021/04/29 01:41:56;;;;;;;24.27;18.40;;;13.40;99.90;;;;;;5034798;28;20088;-75
2021/04/29 01:44:26;;;;;;;30.05;21.92;;;13.40;99.90;;;;;;5051936;28;20033;-75
2021/04/29 01:46:54;;;;;;;34.83;22.52;;;13.40;99.90;;;;;;5047237;28;20390;-76
2021/04/29 01:49:20;;;;;;;33.53;23.20;;;13.30;99.90;;;;;;5045311;28;20033;-75
2021/04/29 01:51:47;;;;;;;36.72;24.52;;;13.30;99.90;;;;;;5047860;28;20067;-76
2021/04/29 01:54:14;;;;;;;32.30;25.20;;;13.30;99.90;;;;;;5043993;28;20104;-76
2021/04/29 01:56:40;;;;;;;32.30;25.48;;;13.30;99.90;;;;;;5048510;28;20506;-76
2021/04/29 01:59:08;;;;;;;38.25;27.30;;;13.30;99.90;;;;;;5043271;28;20041;-76
2021/04/29 02:01:36;;;;;;;38.28;26.83;;;13.30;99.90;;;;;;5048256;28;20053;-76
2021/04/29 02:04:02;;;;;;;42.13;28.10;;;13.30;99.90;;;;;;5041586;28;20442;-76
2021/04/29 02:06:31;;;;;;;39.35;27.00;;;13.30;99.90;;;;;;5048152;28;20287;-77
2021/04/29 02:08:57;;;;;;;38.05;26.92;;;13.40;99.90;;;;;;5042358;28;20029;-76
2021/04/29 02:11:23;;;;;;;39.00;27.27;;;13.30;99.90;;;;;;5048319;28;20032;-76
2021/04/29 02:13:52;;;;;;;42.13;27.98;;;13.30;99.90;;;;;;5042912;28;20017;-75
2021/04/29 02:16:24;;;;;;;44.72;28.95;;;13.30;99.90;;;;;;5047073;28;20044;-76
2021/04/29 02:18:51;;;;;;;46.33;28.20;;;13.30;99.90;;;;;;5042547;28;20025;-76
2021/04/29 02:21:21;;;;;;;35.47;26.55;;;13.30;99.90;;;;;;5048832;28;20024;-76
2021/04/29 02:23:48;;;;;;;34.13;21.58;;;13.30;99.90;;;;;;5039037;28;20037;-75
2021/04/29 02:26:17;;;;;;;30.58;20.33;;;13.20;99.90;;;;;;5032920;28;20491;-75
2021/04/29 02:28:44;;;;;;;29.58;20.33;;;13.20;99.90;;;;;;5043161;28;20036;-76
2021/04/29 02:31:10;;;;;;;35.97;25.02;;;13.30;99.90;;;;;;5047868;28;20028;-75
2021/04/29 02:33:37;;;;;;;34.45;25.38;;;13.20;99.90;;;;;;5042520;28;20040;-76
2021/04/29 02:36:08;;;;;;;28.60;20.73;;;13.20;99.90;;;;;;5047588;28;20115;-76
2021/04/29 02:38:36;;;;;;;29.35;20.08;;;13.30;99.90;;;;;;5042052;28;20040;-76
2021/04/29 02:41:04;;;;;;;24.45;17.52;;;13.20;99.90;;;;;;5048986;28;20055;-76
2021/04/29 02:43:30;;;;;;;23.73;16.27;;;13.30;99.90;;;;;;5039768;28;20044;-76
2021/04/29 02:45:56;;;;;;;22.73;14.02;;;13.30;99.90;;;;;;5049749;28;20106;-76
2021/04/29 02:48:22;;;;;;;23.13;14.40;;;13.20;99.90;;;;;;5040217;28;20057;-76
2021/04/29 02:50:48;;;;;;;19.63;13.57;;;13.20;99.90;;;;;;5050078;28;20029;-76
2021/04/29 02:53:16;;;;;;;22.73;14.57;;;13.20;99.90;;;;;;5039706;28;20032;-76
2021/04/29 02:55:44;;;;;;;22.92;16.05;;;13.20;99.90;;;;;;5050649;28;20044;-76
2021/04/29 02:58:11;;;;;;;26.20;17.13;;;13.20;99.90;;;;;;5039743;28;20025;-76
2021/04/29 03:00:38;;;;;;;26.92;17.75;;;13.20;99.90;;;;;;5050664;28;20040;-76
2021/04/29 03:03:07;;;;;;;22.40;17.52;;;13.20;99.90;;;;;;5042432;28;20045;-75
2021/04/29 03:05:33;;;;;;;22.58;15.50;;;13.20;99.90;;;;;;5029632;28;20047;-75
2021/04/29 03:07:59;;;;;;;23.65;16.05;;;13.20;99.90;;;;;;5036122;28;20037;-76
2021/04/29 03:10:24;;;;;;;22.05;15.30;;;13.20;99.90;;;;;;5049297;28;20021;-75
2021/04/29 03:12:50;;;;;;;18.50;13.60;;;13.20;99.90;;;;;;5038347;28;20037;-76
2021/04/29 03:15:16;;;;;;;20.35;13.32;;;13.20;99.90;;;;;;5050854;28;20025;-76
2021/04/29 03:17:43;;;;;;;21.80;12.27;;;13.10;99.90;;;;;;5037455;28;20383;-76
2021/04/29 03:20:12;;;;;;;19.13;12.05;;;13.10;99.90;;;;;;5050384;28;20025;-76
2021/04/29 03:22:37;;;;;;;19.90;11.65;;;13.10;99.90;;;;;;5037784;28;20034;-76
2021/04/29 03:25:04;;;;;;;23.95;12.27;;;13.10;99.90;;;;;;5049404;28;20377;-75
2021/04/29 03:27:30;;;;;;;18.75;12.70;;;13.10;99.90;;;;;;5040936;28;20021;-75
2021/04/29 03:29:56;;;;;;;17.67;12.33;;;13.10;99.90;;;;;;5048447;28;20506;-76
2021/04/29 03:32:22;;;;;;;25.42;13.70;;;13.10;99.90;;;;;;5040320;28;20053;-76
2021/04/29 03:34:49;;;;;;;20.42;12.77;;;13.10;99.90;;;;;;5046478;28;20032;-76
2021/04/29 03:37:15;;;;;;;17.15;10.18;;;13.10;99.90;;;;;;5042763;28;20073;-76
2021/04/29 03:39:41;;;;;;;14.95;9.23;;;13.10;99.90;;;;;;5046830;28;20112;-76
2021/04/29 03:42:07;;;;;;;10.90;7.78;;;13.10;99.90;;;;;;5043805;28;20123;-76
2021/04/29 03:44:34;;;;;;;13.93;7.78;;;13.10;99.90;;;;;;5035345;28;20025;-76
2021/04/29 03:47:00;;;;;;;12.48;8.23;;;13.10;99.90;;;;;;5035783;28;20025;-76
2021/04/29 03:49:25;;;;;;;10.65;7.43;;;13.10;99.90;;;;;;5044130;28;20135;-76
2021/04/29 03:51:51;;;;;;;12.00;7.50;;;13.10;99.90;;;;;;5045246;28;20500;-76
2021/04/29 03:54:17;;;;;;;9.23;6.82;;;13.20;99.90;;;;;;5043224;28;20033;-76
2021/04/29 03:56:42;;;;;;;10.60;7.55;;;13.20;99.90;;;;;;5046654;28;20032;-76
2021/04/29 03:59:08;;;;;;;8.00;6.97;;;13.20;99.90;;;;;;5040357;28;20087;-76
2021/04/29 04:01:34;;;;;;;8.48;6.75;;;13.20;99.90;;;;;;5045419;28;20507;-76
2021/04/29 04:03:59;;;;;;;5.95;5.35;;;13.20;99.90;;;;;;5039695;28;20561;-76
2021/04/29 04:06:25;;;;;;;7.72;6.05;;;13.20;99.90;;;;;;5032821;28;20055;-77
2021/04/29 04:08:51;;;;;;;7.57;6.05;;;13.20;99.90;;;;;;5039112;28;20025;-76
2021/04/29 04:11:16;;;;;;;7.43;5.07;;;13.20;99.90;;;;;;5046750;28;20091;-76
2021/04/29 04:13:42;;;;;;;7.35;5.68;;;13.20;99.90;;;;;;5039921;28;20048;-76
2021/04/29 04:16:11;;;;;;;6.55;5.10;;;13.20;99.90;;;;;;5047066;28;20025;-76
2021/04/29 04:18:38;;;;;;;6.13;5.32;;;13.20;99.90;;;;;;5034543;28;20029;-76
2021/04/29 04:21:04;;;;;;;9.47;5.57;;;13.20;99.90;;;;;;5031436;28;20024;-76
2021/04/29 04:23:30;;;;;;;11.00;7.57;;;13.20;99.90;;;;;;5039662;28;20300;-76
2021/04/29 04:25:55;;;;;;;9.25;7.15;;;13.30;99.90;;;;;;5030762;28;20059;-76
2021/04/29 04:28:21;;;;;;;9.68;7.68;;;13.20;99.90;;;;;;5032939;28;20530;-76
2021/04/29 04:30:47;;;;;;;16.63;10.85;;;13.10;99.90;;;;;;5030377;28;20484;-76
2021/04/29 04:33:13;;;;;;;16.20;8.65;;;13.00;99.90;;;;;;5040928;28;20017;-76
2021/04/29 04:35:39;;;;;;;17.30;11.27;;;13.00;99.90;;;;;;5052090;28;20498;-76
2021/04/29 04:38:05;;;;;;;15.35;11.02;;;13.00;99.90;;;;;;5026492;28;20030;-75
2021/04/29 04:40:31;;;;;;;18.48;11.57;;;13.00;99.90;;;;;;5031239;28;20095;-76
2021/04/29 04:42:57;;;;;;;17.77;12.43;;;13.00;99.90;;;;;;5034774;28;20068;-76
2021/04/29 04:45:23;;;;;;;9.35;8.00;;;13.00;99.90;;;;;;5032685;28;20495;-76
2021/04/29 04:47:48;;;;;;;8.98;7.03;;;13.10;99.90;;;;;;5032166;28;20561;-76
2021/04/29 04:50:16;;;;;;;10.10;7.35;;;13.10;99.90;;;;;;5033200;28;20446;-76
2021/04/29 04:52:42;;;;;;;7.70;6.53;;;13.20;99.90;;;;;;5032890;28;20033;-75
2021/04/29 04:55:08;;;;;;;7.50;5.80;;;13.20;99.90;;;;;;5033904;28;20021;-76
2021/04/29 04:57:34;;;;;;;11.05;5.18;;;13.30;99.90;;;;;;5031911;28;20080;-76
2021/04/29 05:00:00;;;;;;;8.40;6.95;;;13.30;99.90;;;;;;5031858;28;20606;-77
2021/04/29 05:02:25;;;;;;;8.88;7.22;;;13.30;99.90;;;;;;5033236;28;20046;-76
2021/04/29 05:04:51;;;;;;;12.43;9.25;;;13.20;99.90;;;;;;5031743;28;20021;-77
2021/04/29 05:07:17;;;;;;;16.27;9.43;;;13.20;99.90;;;;;;5032784;28;20108;-76
2021/04/29 05:09:43;;;;;;;15.38;10.18;;;13.20;99.90;;;;;;5032650;28;20033;-76
2021/04/29 05:12:10;;;;;;;13.48;9.15;;;13.10;99.90;;;;;;5031620;28;20240;-76
2021/04/29 05:14:36;;;;;;;13.55;9.40;;;13.10;99.90;;;;;;5047965;28;20025;-77
2021/04/29 05:17:02;;;;;;;11.90;9.23;;;13.20;99.90;;;;;;5036870;28;20036;-76
2021/04/29 05:19:28;;;;;;;14.18;10.63;;;13.20;99.90;;;;;;5032405;28;20042;-77
2021/04/29 05:21:54;;;;;;;15.63;11.05;;;13.30;99.90;;;;;;5032506;28;20535;-77
2021/04/29 05:24:19;;;;;;;11.57;9.25;;;13.30;99.90;;;;;;5032335;28;20057;-77
2021/04/29 05:26:45;;;;;;;10.13;8.27;;;13.30;99.90;;;;;;5035293;28;20053;-77
2021/04/29 05:29:11;;;;;;;13.32;8.43;;;13.40;99.90;;;;;;5023310;28;20032;-76
2021/04/29 05:31:37;;;;;;;9.90;7.32;;;13.50;99.90;;;;;;5031455;28;20022;-77
2021/04/29 05:34:04;;;;;;;13.82;8.30;;;13.40;99.90;;;;;;5032111;28;20025;-78
2021/04/29 05:36:30;;;;;;;10.43;7.57;;;13.50;99.90;;;;;;5034740;28;20043;-76
2021/04/29 05:38:56;;;;;;;14.73;8.30;;;13.50;99.90;;;;;;5031129;28;20643;-76
2021/04/29 05:41:22;;;;;;;10.60;8.65;;;13.50;99.90;;;;;;5029612;28;20055;-75
2021/04/29 05:43:48;;;;;;;10.55;8.32;;;13.50;99.90;;;;;;5026184;28;20225;-76
2021/04/29 05:46:14;;;;;;;9.93;8.43;;;13.60;99.90;;;;;;5029617;28;20033;-76
2021/04/29 05:48:40;;;;;;;10.82;8.38;;;13.60;99.90;;;;;;5029606;28;20492;-75
2021/04/29 05:51:09;;;;;;;14.35;9.07;;;13.70;99.90;;;;;;5031114;28;20025;-76
2021/04/29 05:53:35;;;;;;;16.98;9.50;;;13.70;99.90;;;;;;5030179;28;20033;-77
2021/04/29 05:56:01;;;;;;;19.55;10.15;;;13.80;99.90;;;;;;5032155;28;20024;-76
2021/04/29 05:58:27;;;;;;;14.30;10.27;;;13.80;99.90;;;;;;5050466;28;20025;-78
2021/04/29 06:00:53;;;;;;;14.48;11.50;;;13.80;99.90;;;;;;5050511;28;20041;-76
2021/04/29 06:03:21;;;;;;;14.82;11.32;;;13.80;99.90;;;;;;5037228;28;20037;-77
2021/04/29 06:05:50;;;;;;;16.52;12.13;;;13.80;99.90;;;;;;5033662;28;20051;-76
2021/04/29 06:08:19;;;;;;;18.20;12.25;;;13.90;99.90;;;;;;5042741;28;20057;-76
2021/04/29 06:10:45;;;;;;;19.35;13.50;;;13.90;99.90;;;;;;5031624;28;20021;-75
2021/04/29 06:13:11;;;;;;;22.75;13.32;;;13.90;99.90;;;;;;5045954;28;20120;-75
2021/04/29 06:15:37;;;;;;;17.02;12.23;;;13.90;99.90;;;;;;5031211;28;20453;-76
2021/04/29 06:18:03;;;;;;;19.67;11.30;;;14.00;99.90;;;;;;5035695;28;20637;-77
2021/04/29 06:20:29;;;;;;;19.38;10.95;;;14.00;99.90;;;;;;5050203;28;20395;-76
2021/04/29 06:22:55;;;;;;;17.10;11.07;;;14.10;99.90;;;;;;5039096;28;20041;-76
2021/04/29 06:25:23;;;;;;;17.65;11.90;;;14.20;99.90;;;;;;5036645;28;20068;-76
2021/04/29 06:27:49;;;;;;;20.33;10.65;;;14.20;99.90;;;;;;5030893;28;20650;-77
2021/04/29 06:30:15;;;;;;;12.70;7.97;;;14.20;99.90;;;;;;5031281;28;20445;-76
2021/04/29 06:32:42;;;;;;;32.92;13.50;;;14.20;99.90;;;;;;5031938;28;20361;-76
2021/04/29 06:35:10;;;;;;;23.50;11.57;;;14.30;99.90;;;;;;5029430;28;20038;-77
2021/04/29 06:37:35;;;;;;;23.42;12.65;;;14.30;99.90;;;;;;5032827;28;20384;-76
2021/04/29 06:40:02;;;;;;;13.90;9.27;;;14.30;99.90;;;;;;5036838;28;20037;-75
2021/04/29 06:42:28;;;;;;;14.23;9.70;;;14.30;99.90;;;;;;5034427;28;20095;-77
2021/04/29 06:44:54;;;;;;;15.25;9.02;;;14.40;99.90;;;;;;5039148;28;20037;-76
2021/04/29 06:47:26;;;;;;;15.23;8.95;;;14.40;99.90;;;;;;5038671;28;20063;-76
2021/04/29 06:49:52;;;;;;;14.55;8.63;;;14.40;99.90;;;;;;5031814;28;20171;-77
2021/04/29 06:52:20;;;;;;;11.90;8.57;;;14.40;99.90;;;;;;5033975;28;20591;-78
2021/04/29 06:54:46;;;;;;;11.35;8.30;;;14.40;99.90;;;;;;5037656;28;20046;-78
2021/04/29 06:57:15;;;;;;;16.13;9.82;;;14.40;99.90;;;;;;5035346;28;20248;-77
2021/04/29 06:59:42;;;;;;;16.73;10.07;;;14.40;99.90;;;;;;5044627;28;20037;-77
2021/04/29 07:02:09;;;;;;;18.38;8.98;;;14.50;99.90;;;;;;5029686;28;20524;-76
2021/04/29 07:04:35;;;;;;;11.18;8.35;;;14.60;99.90;;;;;;5029425;28;20044;-77
2021/04/29 07:07:01;;;;;;;12.48;8.63;;;14.70;99.90;;;;;;5029343;28;20366;-77
2021/04/29 07:09:27;;;;;;;13.00;8.07;;;14.90;99.90;;;;;;5029996;28;20032;-80
2021/04/29 07:11:54;;;;;;;15.82;8.85;;;15.10;99.90;;;;;;5035837;28;20029;-78
2021/04/29 07:14:20;;;;;;;15.63;9.90;;;15.40;99.90;;;;;;5029278;28;20017;-78
2021/04/29 07:16:47;;;;;;;14.75;8.23;;;15.60;99.90;;;;;;5033719;28;20410;-79
2021/04/29 07:19:16;;;;;;;12.20;8.60;;;15.70;99.90;;;;;;5030480;28;20089;-79
2021/04/29 07:21:42;;;;;;;12.77;8.95;;;15.80;99.90;;;;;;5034794;28;20487;-78
2021/04/29 07:24:08;;;;;;;14.38;8.35;;;15.90;99.90;;;;;;5033392;28;20032;-79
2021/04/29 07:26:35;;;;;;;14.75;8.40;;;16.00;99.90;;;;;;5045739;28;20057;-78
2021/04/29 07:29:02;;;;;;;11.53;8.33;;;16.10;99.90;;;;;;5041404;28;20499;-79
2021/04/29 07:31:28;;;;;;;17.30;9.10;;;16.10;99.90;;;;;;5045647;28;20049;-78
2021/04/29 07:33:54;;;;;;;17.25;8.25;;;16.10;99.90;;;;;;5041610;28;20443;-78
2021/04/29 07:36:20;;;;;;;15.82;9.07;;;16.00;99.90;;;;;;5047006;28;20323;-78
2021/04/29 07:38:46;;;;;;;20.90;9.27;;;15.90;99.90;;;;;;5040318;28;20068;-78
2021/04/29 07:41:12;;;;;;;16.25;8.98;;;15.70;99.90;;;;;;5045639;28;20119;-78
2021/04/29 07:43:40;;;;;;;11.45;8.57;;;15.70;99.90;;;;;;5041478;28;20035;-78
2021/04/29 07:46:09;;;;;;;16.77;9.80;;;15.80;99.90;;;;;;5047631;28;20029;-78
2021/04/29 07:48:35;;;;;;;18.70;10.63;;;15.80;99.90;;;;;;5034945;28;20625;-78
2021/04/29 07:51:01;;;;;;;20.63;11.15;;;15.90;99.90;;;;;;5028721;28;20025;-78
2021/04/29 07:53:27;;;;;;;20.25;11.73;;;15.80;99.90;;;;;;5031348;28;20033;-77
2021/04/29 07:55:53;;;;;;;16.00;11.75;;;15.70;99.90;;;;;;5030889;28;20045;-77
2021/04/29 07:58:20;;;;;;;24.05;11.65;;;15.60;99.90;;;;;;5035703;28;20033;-79
2021/04/29 08:00:46;;;;;;;12.25;9.45;;;15.60;99.90;;;;;;5036515;28;20582;-78
2021/04/29 08:03:12;;;;;;;22.13;11.15;;;15.80;99.90;;;;;;5033158;28;20076;-78
2021/04/29 08:05:37;;;;;;;21.52;11.73;;;15.80;99.90;;;;;;5027174;28;20049;-77
2021/04/29 08:08:04;;;;;;;19.33;11.07;;;15.80;99.90;;;;;;5034541;28;20041;-78
2021/04/29 08:10:30;;;;;;;16.95;11.30;;;15.90;99.90;;;;;;5034409;28;20013;-77
2021/04/29 08:12:56;;;;;;;17.85;11.15;;;16.00;99.90;;;;;;5039357;28;20068;-79
2021/04/29 08:15:22;;;;;;;21.20;11.82;;;16.10;99.90;;;;;;5036634;28;20029;-78
2021/04/29 08:17:51;;;;;;;22.70;11.57;;;16.30;99.90;;;;;;5041265;28;20018;-79
2021/04/29 08:20:17;;;;;;;18.17;10.98;;;16.50;99.90;;;;;;5034355;28;20236;-77
2021/04/29 08:22:43;;;;;;;20.08;10.05;;;16.80;99.90;;;;;;5034338;28;20427;-78
2021/04/29 08:25:09;;;;;;;16.33;9.13;;;17.20;99.90;;;;;;5045792;28;20119;-78
2021/04/29 08:27:36;;;;;;;15.88;10.00;;;17.60;99.90;;;;;;5034399;28;20029;-78
2021/04/29 08:30:03;;;;;;;17.27;10.40;;;17.90;99.90;;;;;;5037029;28;20029;-78
2021/04/29 08:32:28;;;;;;;;;;;18.40;99.90;;;;;;5047826;28;20055;-76
2021/04/29 08:34:54;;;;;;;17.95;10.25;;;18.80;99.90;;;;;;5036140;28;19909;-77
2021/04/29 08:37:20;;;;;;;14.80;9.80;;;19.10;99.90;;;;;;5034448;28;20491;-77
2021/04/29 08:39:47;;;;;;;12.27;9.15;;;19.60;99.90;;;;;;5032564;28;20021;-77
2021/04/29 08:42:17;;;;;;;17.00;8.07;;;20.00;99.90;;;;;;5034036;28;20044;-77
2021/04/29 08:44:43;;;;;;;17.95;8.70;;;20.20;99.90;;;;;;5029475;28;20068;-78
2021/04/29 08:47:09;;;;;;;11.57;8.10;;;20.10;99.90;;;;;;5033167;28;20113;-77
2021/04/29 08:49:39;;;;;;;11.98;7.70;;;20.20;99.90;;;;;;5030708;28;20038;-78
2021/04/29 08:52:07;;;;;;;9.90;7.07;;;20.40;99.90;;;;;;5039275;28;20488;-78
2021/04/29 08:54:38;;;;;;;14.02;6.75;;;20.60;99.90;;;;;;5038406;28;20032;-77
2021/04/29 08:57:05;;;;;;;18.42;7.05;;;20.40;99.90;;;;;;5038323;28;20100;-78
2021/04/29 08:59:31;;;;;;;13.85;6.72;;;20.20;99.90;;;;;;5046997;28;20029;-78
2021/04/29 09:01:57;;;;;;;12.00;7.10;;;20.10;99.90;;;;;;5047617;28;20128;-78
2021/04/29 09:04:24;;;;;;;13.98;7.85;;;20.00;99.90;;;;;;5034730;28;20124;-78
2021/04/29 09:06:49;;;;;;;15.15;7.85;;;19.70;99.90;;;;;;5038504;28;20025;-77
2021/04/29 09:09:17;;;;;;;24.92;8.95;;;19.60;99.90;;;;;;5045268;28;20087;-78
2021/04/29 09:11:51;;;;;;;11.48;7.75;;;19.70;99.90;;;;;;5049420;28;20017;-79
2021/04/29 09:14:35;;;;;;;15.95;7.47;;;19.60;99.90;;;;;;5045617;28;20051;-78
2021/04/29 09:17:01;;;;;;;12.02;6.75;;;19.50;99.90;;;;;;5045618;28;20029;-77
2021/04/29 09:19:28;;;;;;;14.93;6.85;;;19.50;99.90;;;;;;5045537;28;20476;-79
2021/04/29 09:21:55;;;;;;;12.18;6.50;;;19.60;99.90;;;;;;5047520;28;20099;-79
2021/04/29 09:24:38;;;;;;;12.20;7.18;;;19.90;99.90;;;;;;5045809;28;20076;-80
2021/04/29 09:27:10;;;;;;;9.80;4.90;;;20.10;99.90;;;;;;5046092;28;20026;-79
2021/04/29 09:29:36;;;;;;;13.45;5.55;;;20.10;99.90;;;;;;5047426;28;20515;-79
2021/04/29 09:32:01;;;;;;;11.63;5.82;;;20.40;99.90;;;;;;5046405;28;20171;-78
2021/04/29 09:34:38;;;;;;;12.05;4.88;;;20.80;99.90;;;;;;5046833;28;20036;-78
2021/04/29 09:37:04;;;;;;;10.32;4.15;;;21.10;99.90;;;;;;5046413;28;20029;-79
2021/04/29 09:39:34;;;;;;;8.05;3.90;;;21.10;99.90;;;;;;5046677;28;20074;-78
2021/04/29 09:42:00;;;;;;;10.15;3.97;;;21.40;99.90;;;;;;5046871;28;20059;-79
2021/04/29 09:44:26;;;;;;;8.67;3.63;;;21.40;99.90;;;;;;5044774;28;20041;-78
2021/04/29 09:46:55;;;;;;;11.95;5.00;;;21.70;99.90;;;;;;5046623;28;20028;-78
2021/04/29 09:49:35;;;;;;;9.35;3.92;;;22.20;99.90;;;;;;5039168;28;20053;-79
2021/04/29 09:52:03;;;;;;;12.95;5.13;;;22.30;99.90;;;;;;5030176;28;20152;-79
2021/04/29 09:54:35;;;;;;;15.90;4.78;;;21.90;99.90;;;;;;5035099;28;20387;-78
2021/04/29 09:57:06;;;;;;;8.73;4.55;;;21.70;99.90;;;;;;5033258;28;20029;-77
2021/04/29 09:59:41;;;;;;;8.45;4.85;;;21.00;99.90;;;;;;5026436;28;20021;-78
2021/04/29 10:02:10;;;;;;;12.95;5.72;;;20.90;99.90;;;;;;5025754;28;20322;-79
2021/04/29 10:04:38;;;;;;;11.48;4.75;;;20.80;99.90;;;;;;5033108;28;20044;-79
2021/04/29 10:07:04;;;;;;;12.55;5.40;;;20.50;99.90;;;;;;5034199;28;20021;-79
2021/04/29 10:09:31;;;;;;;12.63;5.97;;;20.10;99.90;;;;;;5030431;28;20060;-78
2021/04/29 10:12:02;;;;;;;10.27;6.22;;;20.20;99.90;;;;;;5035989;28;20032;-80
2021/04/29 10:14:32;;;;;;;15.35;5.95;;;19.70;99.90;;;;;;5029438;28;20026;-79
2021/04/29 10:17:01;;;;;;;12.15;6.25;;;19.70;99.90;;;;;;5030081;28;20600;-79
2021/04/29 10:19:27;;;;;;;13.90;5.95;;;19.40;99.90;;;;;;5031330;28;20080;-80
2021/04/29 10:21:58;;;;;;;14.57;7.00;;;19.30;99.90;;;;;;5030261;28;20022;-79
2021/04/29 10:24:25;;;;;;;13.80;6.43;;;19.20;99.90;;;;;;5031369;28;20100;-78
2021/04/29 10:26:58;;;;;;;;;;;19.20;99.90;;;;;;5035050;28;20053;-77
2021/04/29 10:29:24;;;;;;;12.52;6.43;;;19.20;99.90;;;;;;5036845;28;19924;-78
2021/04/29 10:31:56;;;;;;;9.40;5.85;;;19.10;99.90;;;;;;5035544;28;20017;-79
2021/04/29 10:34:22;;;;;;;11.98;7.07;;;18.80;99.90;;;;;;5044303;28;20021;-79
2021/04/29 10:36:49;;;;;;;10.13;6.50;;;18.60;99.90;;;;;;5045626;28;20029;-79
2021/04/29 10:39:20;;;;;;;14.30;6.45;;;18.40;99.90;;;;;;5034199;28;20103;-79
2021/04/29 10:42:02;;;;;;;14.23;6.95;;;18.20;99.90;;;;;;5036589;28;20103;-79
2021/04/29 10:44:38;;;;;;;11.95;6.57;;;18.00;99.90;;;;;;5043758;28;20044;-80
2021/04/29 10:47:04;;;;;;;16.10;7.03;;;18.30;99.90;;;;;;5044813;28;20028;-78
2021/04/29 10:49:37;;;;;;;12.75;6.93;;;18.30;99.90;;;;;;5045118;28;20037;-78
2021/04/29 10:52:03;;;;;;;18.27;7.75;;;18.30;99.90;;;;;;5045398;28;20025;-78
2021/04/29 10:54:29;;;;;;;19.17;8.30;;;18.00;99.90;;;;;;5035726;28;20033;-78
2021/04/29 10:57:16;;;;;;;15.10;8.40;;;17.70;99.90;;;;;;5035834;28;20028;-80
2021/04/29 10:59:48;;;;;;;19.90;7.80;;;17.50;99.90;;;;;;5035016;28;20033;-79
2021/04/29 11:02:37;;;;;;;21.50;7.28;;;17.30;99.90;;;;;;5038478;28;20072;-80
2021/04/29 11:05:06;;;;;;;9.82;6.30;;;17.30;99.90;;;;;;5031782;28;20026;-78
2021/04/29 11:07:32;;;;;;;18.52;6.00;;;17.80;99.90;;;;;;5039603;28;20520;-79
2021/04/29 11:09:58;;;;;;;10.75;6.47;;;17.80;99.90;;;;;;5032539;28;20120;-79
2021/04/29 11:12:41;;;;;;;10.43;5.75;;;18.00;99.90;;;;;;5036284;28;20279;-79
2021/04/29 11:15:27;;;;;;;20.25;6.32;;;18.50;99.90;;;;;;5050389;28;20067;-79
2021/04/29 11:18:00;;;;;;;15.55;6.32;;;18.70;99.90;;;;;;5044577;28;20083;-78
2021/04/29 11:20:26;;;;;;;10.30;5.57;;;18.50;99.90;;;;;;5030409;28;20029;-77
2021/04/29 11:22:56;;;;;;;13.70;5.38;;;18.60;99.90;;;;;;5032278;28;20392;-78
2021/04/29 11:25:22;;;;;;;11.60;5.30;;;18.80;99.90;;;;;;5034640;28;20033;-77
2021/04/29 11:27:55;;;;;;;15.25;6.55;;;19.10;99.90;;;;;;5032711;28;20079;-82
2021/04/29 11:30:21;;;;;;;12.80;5.65;;;19.40;99.90;;;;;;5026637;28;20022;-76
2021/04/29 11:32:55;;;;;;;13.02;5.65;;;19.60;99.90;;;;;;5030859;28;20488;-78
2021/04/29 11:35:24;;;;;;;17.00;6.22;;;19.50;99.90;;;;;;5027036;28;20033;-78
2021/04/29 11:37:50;;;;;;;14.45;5.47;;;20.10;99.90;;;;;;5030050;28;20400;-78
2021/04/29 11:40:16;;;;;;;17.42;6.45;;;20.80;99.90;;;;;;5029379;28;20095;-77
2021/04/29 11:42:50;;;;;;;15.82;7.00;;;20.80;99.90;;;;;;5034036;28;20442;-76
2021/04/29 11:45:17;;;;;;;13.50;6.78;;;20.80;99.90;;;;;;5032798;28;20065;-81
2021/04/29 11:48:12;;;;;;;14.27;6.50;;;20.90;99.90;;;;;;5036065;28;20076;-79
2021/04/29 11:50:40;;;;;;;13.60;6.20;;;20.60;99.90;;;;;;5032963;28;20049;-79
2021/04/29 11:53:11;;;;;;;11.43;5.85;;;21.10;99.90;;;;;;5035389;28;20403;-78
2021/04/29 11:55:56;;;;;;;8.80;5.28;;;21.80;99.90;;;;;;5029999;28;20294;-77
2021/04/29 11:58:21;;;;;;;15.65;5.47;;;22.40;99.90;;;;;;5032617;28;20029;-77
2021/04/29 12:00:50;;;;;;;12.25;6.57;;;23.00;99.90;;;;;;5033249;28;20049;-77
2021/04/29 12:03:17;;;;;;;12.30;5.68;;;23.00;99.90;;;;;;5033351;28;20083;-79
2021/04/29 12:05:45;;;;;;;14.07;5.50;;;23.10;99.90;;;;;;5032900;28;21170;-77
2021/04/29 12:08:21;;;;;;;13.23;5.10;;;23.80;99.90;;;;;;5032938;28;20041;-78
2021/04/29 12:10:48;;;;;;;7.28;5.05;;;23.80;99.90;;;;;;5032598;28;20488;-76
2021/04/29 12:13:16;;;;;;;15.98;5.07;;;23.50;99.90;;;;;;5037102;28;20527;-79
2021/04/29 12:15:42;;;;;;;8.27;4.07;;;23.80;99.90;;;;;;5031464;28;20026;-76
2021/04/29 12:18:13;;;;;;;16.67;4.63;;;24.30;97.70;;;;;;5035056;28;20060;-78
2021/04/29 12:20:41;;;;;;;12.13;5.00;;;24.00;99.90;;;;;;5031598;28;20468;-79
2021/04/29 12:23:12;;;;;;;10.52;4.32;;;25.00;97.60;;;;;;5033793;28;20032;-81
2021/04/29 12:25:39;;;;;;;11.73;5.40;;;25.00;97.10;;;;;;5031574;28;20029;-76
2021/04/29 12:28:16;;;;;;;10.05;5.18;;;24.00;98.80;;;;;;5042340;28;20025;-77
2021/04/29 12:30:42;;;;;;;9.30;3.78;;;24.00;99.90;;;;;;5050625;28;20097;-79
2021/04/29 12:33:21;;;;;;;10.47;3.43;;;24.60;97.60;;;;;;5042194;28;20065;-77
2021/04/29 12:35:47;;;;;;;9.23;3.67;;;23.90;98.40;;;;;;5029690;28;20482;-78
2021/04/29 12:38:14;;;;;;;7.85;4.45;;;24.20;98.10;;;;;;5047259;28;20064;-77
2021/04/29 12:40:40;;;;;;;7.75;3.60;;;25.60;95.50;;;;;;5048221;28;20503;-75